Airfield :
LOGIN :

Register | Disclaimer

   EN    FR    IT 

 










Legend :    VFR   Marginal VFR   IFR   Intensive IFR   Very Intensive IFR
Visi :
Ceiling :
>= 8 km
>= 3000ft
5 to 8 km
1000 to 3000 ft
1500m to 5 km
500 to 1000 ft
800 to 1500m
200 to 500 ft
< 800m
< 200 ft
Symbols :   Thunderstorms  Fog  Heavy snow  Heavy precipitations  Wind > 20 kt
SIGMETs :     Misc.  Thunderstorms  Icing  Turbulence  Mountain Waves  Volcanic Ashes






- Airport Elevation : 289 ft


LIRG - Guidonia

CURRENT METAR :
  • 091755Z 15008KT 9999 FEW025 SCT040 16/11 Q1004 RMK OVC MON NE LIB NC VIS MIN 9999 BLU

EXPIRED METARs :
  • 091655Z 14014KT 9999 -RA FEW025 SCT040 16/12 Q1004 RMK OVC MON NE LIB NC VIS MIN 9999 BLU

TAF TAF LIRG
Valid from the 09 at 15:00 until the 10 at 00:00 UTC


091400Z 0915/0924 14010KT 9999 FEW020 SCT040
TEMPO 0915/0917 14015G25KT
TEMPO 0916/0924 5000 SHRA BKN020



MET'MAP, your aeronautical weather chart ! - Copyright ORBIFLY December 2007 - Disclaimer

ORBIFLY MET'MAP TEAM :

Programming & Development : Alexandra Zaïnal
Original concept : Baudouin d'Aumeries
Technical & hardware support : Manuel Goepfert
Assistance : Marc-Olivier Méhu




SOURCES & CREDITS :

   NOAA